createdAt,value
2022-12-26T00:02:45.006Z,2.55
2022-12-26T00:05:46.379Z,2.45
2022-12-26T00:08:48.048Z,2.38
2022-12-26T00:11:49.340Z,2.05
2022-12-26T00:14:50.625Z,1.67
2022-12-26T00:17:51.915Z,1.90
2022-12-26T00:20:53.193Z,2.05
2022-12-26T00:23:55.628Z,2.20
2022-12-26T00:26:56.910Z,1.73
2022-12-26T00:29:58.227Z,1.92
2022-12-26T00:32:59.481Z,2.10
2022-12-26T00:36:08.932Z,2.17
2022-12-26T00:39:10.410Z,1.95
2022-12-26T00:42:11.678Z,1.90
2022-12-26T00:45:12.978Z,2.15
2022-12-26T00:48:14.361Z,1.67
2022-12-26T00:51:15.722Z,1.80
2022-12-26T00:54:16.966Z,1.95
2022-12-26T00:57:18.256Z,1.55
2022-12-26T01:00:19.624Z,1.75
2022-12-26T01:03:20.972Z,2.17
2022-12-26T01:06:22.302Z,2.38
2022-12-26T01:09:23.585Z,1.63
2022-12-26T01:12:24.854Z,2.42
2022-12-26T01:15:26.161Z,2.03
2022-12-26T01:18:27.496Z,1.85
2022-12-26T01:21:28.988Z,1.73
2022-12-26T01:24:31.108Z,2.13
2022-12-26T01:27:32.415Z,1.88
2022-12-26T01:30:33.707Z,1.85
2022-12-26T01:33:35.006Z,1.77
2022-12-26T01:36:36.269Z,1.77
2022-12-26T01:39:37.553Z,1.95
2022-12-26T01:42:39.749Z,1.65
2022-12-26T01:45:41.727Z,1.83
2022-12-26T01:48:43.128Z,1.83
2022-12-26T01:51:46.583Z,1.83
2022-12-26T01:54:49.078Z,1.58
2022-12-26T01:57:54.462Z,2.10
2022-12-26T02:00:55.735Z,1.90
2022-12-26T02:04:15.994Z,2.50
2022-12-26T02:07:17.434Z,2.20
2022-12-26T02:10:22.489Z,2.05
2022-12-26T02:13:24.020Z,1.98
2022-12-26T02:16:25.740Z,1.83
2022-12-26T02:19:27.117Z,1.92
2022-12-26T02:22:52.794Z,1.80
2022-12-26T02:26:11.071Z,1.98
2022-12-26T02:29:40.206Z,1.75
2022-12-26T02:32:59.502Z,1.73
2022-12-26T02:36:12.943Z,1.83
2022-12-26T02:39:45.624Z,2.00
2022-12-26T02:42:50.471Z,1.88
2022-12-26T02:46:28.716Z,2.45
2022-12-26T02:50:07.296Z,1.77
2022-12-26T02:53:44.678Z,1.40
2022-12-26T03:00:24.929Z,1.60
2022-12-26T03:03:47.237Z,1.92
2022-12-26T03:07:13.329Z,2.25
2022-12-26T03:10:37.749Z,2.08
2022-12-26T03:13:39.477Z,1.38
2022-12-26T03:16:59.693Z,1.92
2022-12-26T03:20:10.463Z,1.77
2022-12-26T03:23:13.224Z,1.63
2022-12-26T03:26:35.861Z,2.00
2022-12-26T03:29:55.572Z,1.48
2022-12-26T03:32:57.410Z,1.75
2022-12-26T03:35:58.772Z,1.55
2022-12-26T03:39:07.454Z,1.45
2022-12-26T03:42:30.368Z,1.42
2022-12-26T03:46:09.236Z,1.50
2022-12-26T03:49:38.662Z,1.33
2022-12-26T03:53:01.871Z,1.70
2022-12-26T03:56:21.911Z,1.52
2022-12-26T03:59:45.406Z,1.50
2022-12-26T04:03:06.671Z,1.27
2022-12-26T04:06:33.312Z,1.70
2022-12-26T04:09:56.173Z,2.00
2022-12-26T04:13:17.258Z,1.30
2022-12-26T04:16:41.371Z,1.63
2022-12-26T04:19:54.114Z,1.38
2022-12-26T04:23:16.339Z,1.55
2022-12-26T04:26:40.446Z,1.65
2022-12-26T04:33:25.469Z,1.45
2022-12-26T04:36:58.870Z,2.00
2022-12-26T04:40:20.411Z,1.60
2022-12-26T04:43:48.798Z,1.67
2022-12-26T04:50:19.910Z,1.63
2022-12-26T04:53:21.951Z,1.60
2022-12-26T04:56:23.421Z,1.58
2022-12-26T04:59:24.793Z,1.83
2022-12-26T05:02:45.003Z,1.90
2022-12-26T05:06:05.987Z,1.83
2022-12-26T05:09:27.347Z,1.95
2022-12-26T05:12:28.644Z,1.88
2022-12-26T05:15:49.881Z,1.90
2022-12-26T05:19:10.089Z,1.55
2022-12-26T05:22:30.128Z,1.63
2022-12-26T05:25:58.373Z,1.73
2022-12-26T05:29:00.025Z,1.95
2022-12-26T05:32:01.320Z,1.55
2022-12-26T05:35:02.657Z,1.55
2022-12-26T05:38:04.036Z,1.90
2022-12-26T05:41:05.326Z,1.58
2022-12-26T05:44:07.068Z,1.83
2022-12-26T05:47:08.361Z,1.52
2022-12-26T05:50:09.716Z,2.05
2022-12-26T05:53:10.993Z,1.60
2022-12-26T05:56:13.369Z,1.45
2022-12-26T05:59:14.594Z,1.55
2022-12-26T06:02:15.970Z,2.17
2022-12-26T06:05:17.508Z,1.60
2022-12-26T06:08:18.769Z,1.63
2022-12-26T06:11:22.004Z,1.50
2022-12-26T06:14:23.473Z,1.73
2022-12-26T06:17:24.776Z,1.63
2022-12-26T06:20:26.117Z,1.85
2022-12-26T06:23:27.343Z,1.45
2022-12-26T06:26:28.604Z,1.65
2022-12-26T06:29:29.842Z,1.63
2022-12-26T06:32:31.183Z,1.77
2022-12-26T06:35:33.827Z,1.65
2022-12-26T06:38:35.204Z,1.70
2022-12-26T06:41:36.460Z,1.50
2022-12-26T06:44:37.705Z,1.70
2022-12-26T06:47:39.055Z,1.60
2022-12-26T06:50:40.319Z,1.73
2022-12-26T06:53:41.604Z,2.30
2022-12-26T06:56:42.929Z,1.70
2022-12-26T06:59:44.249Z,1.75
2022-12-26T07:02:48.906Z,1.70
2022-12-26T07:05:50.473Z,1.60
2022-12-26T07:08:52.678Z,1.70
2022-12-26T07:11:56.245Z,1.42
2022-12-26T07:15:01.674Z,1.60
2022-12-26T07:18:03.438Z,1.63
2022-12-26T07:21:06.063Z,1.33
2022-12-26T07:24:09.047Z,1.55
2022-12-26T07:27:10.429Z,1.17
2022-12-26T07:30:11.843Z,1.55
2022-12-26T07:33:13.248Z,1.55
2022-12-26T07:36:14.540Z,1.30
2022-12-26T07:39:15.878Z,1.70
2022-12-26T07:42:17.180Z,1.45
2022-12-26T07:45:18.469Z,1.17
2022-12-26T07:48:19.741Z,1.52
2022-12-26T07:51:21.369Z,1.80
2022-12-26T07:54:22.708Z,1.33
2022-12-26T07:57:48.753Z,2.33
2022-12-26T08:00:45.857Z,1.80
2022-12-26T08:03:50.585Z,1.38
2022-12-26T08:06:51.919Z,1.90
2022-12-26T08:09:53.201Z,1.92
2022-12-26T08:12:54.465Z,2.38
2022-12-26T08:15:56.012Z,1.85
2022-12-26T08:18:57.300Z,1.63
2022-12-26T08:21:58.645Z,1.55
2022-12-26T08:24:59.911Z,1.42
2022-12-26T08:28:01.242Z,1.50
2022-12-26T08:31:09.126Z,1.33
2022-12-26T08:34:10.509Z,1.17
2022-12-26T08:37:11.853Z,1.00
2022-12-26T08:40:15.648Z,1.35
2022-12-26T08:43:39.187Z,1.25
2022-12-26T08:46:41.413Z,1.30
2022-12-26T08:49:43.018Z,1.27
2022-12-26T08:52:44.310Z,1.02
2022-12-26T08:55:45.557Z,0.93
2022-12-26T08:58:47.703Z,1.33
2022-12-26T09:01:49.270Z,1.42
2022-12-26T09:04:50.808Z,1.38
2022-12-26T09:07:52.094Z,1.27
2022-12-26T09:10:53.392Z,1.55
2022-12-26T09:13:56.300Z,1.48
2022-12-26T09:16:57.720Z,1.60
2022-12-26T09:19:58.971Z,1.67
2022-12-26T09:23:00.235Z,1.10
2022-12-26T09:26:05.782Z,1.15
2022-12-26T09:29:07.468Z,1.23
2022-12-26T09:32:09.081Z,1.23
2022-12-26T09:35:10.404Z,1.75
2022-12-26T09:38:11.748Z,1.58
2022-12-26T09:41:16.033Z,1.80
2022-12-26T09:44:20.630Z,1.85
2022-12-26T09:47:30.630Z,5.00
2022-12-26T09:50:38.241Z,2.53
2022-12-26T09:53:44.014Z,2.10
2022-12-26T09:57:02.690Z,1.50
2022-12-26T10:00:05.862Z,1.63
2022-12-26T10:03:09.255Z,1.42
2022-12-26T10:06:18.695Z,1.52
2022-12-26T10:09:26.050Z,1.33
2022-12-26T10:12:46.465Z,1.80
2022-12-26T10:15:57.735Z,1.80
2022-12-26T10:19:03.272Z,1.70
2022-12-26T10:22:07.573Z,1.08
2022-12-26T10:25:17.861Z,1.73
2022-12-26T10:28:39.597Z,1.38
2022-12-26T10:31:44.070Z,1.92
2022-12-26T10:34:47.040Z,1.80
2022-12-26T10:37:50.385Z,2.30
2022-12-26T10:40:53.914Z,2.30
2022-12-26T10:43:55.393Z,1.38
2022-12-26T10:47:05.983Z,1.30
2022-12-26T10:50:14.040Z,1.50
2022-12-26T10:53:16.396Z,1.42
2022-12-26T10:56:18.529Z,1.27
2022-12-26T10:59:22.607Z,1.42
2022-12-26T11:02:32.955Z,1.33
2022-12-26T11:09:02.947Z,1.75
2022-12-26T11:12:05.104Z,1.42
2022-12-26T11:15:21.722Z,1.15
2022-12-26T11:18:27.743Z,1.27
2022-12-26T11:21:29.952Z,1.55
2022-12-26T11:24:31.237Z,0.95
2022-12-26T11:27:32.539Z,1.35
2022-12-26T11:30:36.857Z,1.27
2022-12-26T11:33:45.135Z,1.33
2022-12-26T11:36:48.324Z,1.02
2022-12-26T11:39:50.287Z,1.52
2022-12-26T11:42:54.610Z,1.52
2022-12-26T11:45:55.934Z,1.42
2022-12-26T11:48:57.348Z,1.33
2022-12-26T11:52:00.164Z,1.90
2022-12-26T11:55:02.081Z,1.17
2022-12-26T11:58:09.511Z,1.35
2022-12-26T12:01:12.862Z,1.50
2022-12-26T12:04:14.243Z,1.13
2022-12-26T12:07:25.428Z,0.93
2022-12-26T12:10:32.849Z,1.08
2022-12-26T12:13:34.233Z,0.82
2022-12-26T12:16:35.503Z,0.77
2022-12-26T12:19:52.478Z,0.90
2022-12-26T12:23:20.175Z,1.02
2022-12-26T12:26:26.634Z,0.82
2022-12-26T12:29:37.083Z,1.20
2022-12-26T12:32:51.998Z,0.82
2022-12-26T12:36:03.083Z,0.75
2022-12-26T12:39:27.342Z,0.88
2022-12-26T12:42:49.591Z,0.82
2022-12-26T12:45:58.387Z,0.82
2022-12-26T12:49:18.522Z,0.88
2022-12-26T12:52:19.775Z,0.75
2022-12-26T12:55:23.973Z,1.13
2022-12-26T12:58:25.250Z,1.02
2022-12-26T13:01:30.933Z,0.85
2022-12-26T13:04:34.882Z,0.93
2022-12-26T13:07:43.417Z,0.80
2022-12-26T13:10:53.969Z,1.02
2022-12-26T13:13:59.514Z,1.08
2022-12-26T13:17:11.534Z,0.98
2022-12-26T13:20:21.846Z,1.10
2022-12-26T13:23:48.330Z,1.02
2022-12-26T13:27:02.658Z,1.02
2022-12-26T13:30:12.136Z,1.08
2022-12-26T13:33:14.621Z,1.50
2022-12-26T13:36:33.697Z,0.88
2022-12-26T13:39:36.396Z,0.93
2022-12-26T13:43:03.827Z,0.88
2022-12-26T13:46:05.310Z,1.30
2022-12-26T13:49:25.309Z,1.10
2022-12-26T13:52:32.785Z,0.88
2022-12-26T13:55:42.007Z,1.23
2022-12-26T13:58:55.364Z,0.98
2022-12-26T14:02:58.233Z,0.80
2022-12-26T14:06:09.345Z,0.77
2022-12-26T14:09:10.661Z,1.23
2022-12-26T14:12:18.608Z,1.02
2022-12-26T14:15:38.109Z,1.13
2022-12-26T14:18:46.084Z,0.65
2022-12-26T14:21:55.320Z,1.10
2022-12-26T14:25:08.440Z,1.00
2022-12-26T14:28:31.171Z,1.13
2022-12-26T14:31:43.447Z,1.20
2022-12-26T14:34:50.740Z,1.42
2022-12-26T14:38:10.495Z,1.13
2022-12-26T14:41:32.318Z,1.00
2022-12-26T14:44:33.531Z,0.95
2022-12-26T14:47:37.845Z,0.93
2022-12-26T14:50:42.133Z,1.27
2022-12-26T14:53:44.954Z,0.82
2022-12-26T14:56:46.386Z,0.98
2022-12-26T15:00:07.634Z,0.82
2022-12-26T15:03:27.708Z,0.90
2022-12-26T15:06:48.041Z,0.75
2022-12-26T15:09:58.495Z,0.73
2022-12-26T15:13:18.393Z,0.93
2022-12-26T15:16:39.889Z,1.00
2022-12-26T15:19:47.136Z,0.80
2022-12-26T15:22:56.271Z,0.75
2022-12-26T15:25:58.144Z,1.05
2022-12-26T15:29:18.379Z,1.05
2022-12-26T15:32:22.480Z,0.77
2022-12-26T15:35:33.634Z,1.08
2022-12-26T15:38:53.816Z,1.00
2022-12-26T15:41:55.029Z,1.05
2022-12-26T15:45:08.527Z,0.85
2022-12-26T15:48:25.119Z,0.90
2022-12-26T15:51:42.049Z,1.00
2022-12-26T15:54:55.520Z,0.88
2022-12-26T15:58:08.473Z,0.82
2022-12-26T16:01:10.478Z,1.02
2022-12-26T16:04:16.157Z,0.70
2022-12-26T16:07:36.341Z,0.90
2022-12-26T16:10:37.783Z,1.02
2022-12-26T16:13:48.572Z,0.93
2022-12-26T16:16:50.062Z,0.82
2022-12-26T16:19:52.050Z,1.48
2022-12-26T16:22:53.336Z,0.80
2022-12-26T16:25:55.987Z,0.82
2022-12-26T16:28:59.287Z,0.90
2022-12-26T16:32:07.254Z,1.33
2022-12-26T16:35:19.288Z,0.60
2022-12-26T16:38:24.172Z,0.80
2022-12-26T16:41:26.710Z,0.52
2022-12-26T16:44:34.347Z,0.65
2022-12-26T16:47:35.725Z,0.60
2022-12-26T16:50:44.088Z,0.57
2022-12-26T16:53:45.453Z,0.43
2022-12-26T16:56:50.865Z,0.82
2022-12-26T16:59:57.151Z,0.85
2022-12-26T17:02:59.271Z,0.77
2022-12-26T17:06:04.655Z,0.73
2022-12-26T17:09:10.297Z,0.68
2022-12-26T17:12:20.690Z,0.55
2022-12-26T17:15:27.090Z,0.43
2022-12-26T17:18:29.878Z,0.35
2022-12-26T17:21:32.393Z,0.45
2022-12-26T17:24:33.693Z,0.75
2022-12-26T17:27:35.006Z,0.63
2022-12-26T17:30:37.344Z,0.73
2022-12-26T17:33:44.238Z,0.43
2022-12-26T17:40:13.285Z,0.50
2022-12-26T17:43:14.550Z,0.73
2022-12-26T17:46:17.139Z,0.90
2022-12-26T17:49:18.513Z,1.40
2022-12-26T17:52:21.187Z,1.20
2022-12-26T17:55:25.581Z,0.82
2022-12-26T17:58:27.526Z,0.52
2022-12-26T18:01:28.965Z,0.70
2022-12-26T18:04:30.296Z,0.63
2022-12-26T18:07:32.039Z,0.63
2022-12-26T18:10:35.244Z,0.75
2022-12-26T18:13:36.762Z,0.73
2022-12-26T18:16:38.089Z,0.55
2022-12-26T18:19:39.431Z,0.77
2022-12-26T18:22:40.658Z,0.73
2022-12-26T18:25:42.162Z,0.98
2022-12-26T18:28:43.767Z,0.60
2022-12-26T18:31:45.132Z,0.88
2022-12-26T18:34:46.449Z,1.13
2022-12-26T18:37:48.718Z,1.05
2022-12-26T18:40:52.941Z,0.88
2022-12-26T18:43:54.339Z,0.68
2022-12-26T18:46:55.637Z,0.68
2022-12-26T18:49:56.899Z,0.70
2022-12-26T18:52:58.685Z,0.63
2022-12-26T18:55:59.984Z,0.73
2022-12-26T18:59:01.281Z,1.10
2022-12-26T19:02:02.607Z,1.60
2022-12-26T19:05:05.173Z,1.02
2022-12-26T19:08:06.415Z,0.80
2022-12-26T19:11:07.787Z,1.15
2022-12-26T19:14:14.060Z,0.90
2022-12-26T19:17:15.842Z,0.85
2022-12-26T19:20:22.012Z,0.93
2022-12-26T19:23:23.366Z,0.82
2022-12-26T19:26:24.654Z,0.85
2022-12-26T19:29:26.045Z,0.85
2022-12-26T19:32:27.350Z,0.82
2022-12-26T19:35:28.681Z,0.80
2022-12-26T19:38:29.996Z,0.55
2022-12-26T19:41:31.377Z,0.80
2022-12-26T19:44:32.783Z,0.77
2022-12-26T19:47:34.736Z,0.90
2022-12-26T19:50:36.051Z,0.70
2022-12-26T19:53:37.743Z,0.85
2022-12-26T19:56:39.053Z,0.85
2022-12-26T19:59:40.354Z,0.88
2022-12-26T20:02:41.813Z,0.90
2022-12-26T20:05:43.189Z,0.63
2022-12-26T20:08:45.749Z,0.57
2022-12-26T20:11:53.967Z,0.80
2022-12-26T20:14:55.266Z,0.70
2022-12-26T20:17:56.575Z,0.70
2022-12-26T20:20:57.914Z,0.75
2022-12-26T20:24:00.018Z,0.82
2022-12-26T20:27:01.708Z,0.63
2022-12-26T20:30:03.599Z,0.73
2022-12-26T20:33:04.899Z,0.70
2022-12-26T20:36:07.504Z,1.20
2022-12-26T20:39:11.972Z,0.70
2022-12-26T20:42:15.678Z,0.55
2022-12-26T20:45:17.092Z,1.50
2022-12-26T20:48:18.382Z,0.73
2022-12-26T20:51:21.206Z,0.75
2022-12-26T20:54:22.613Z,0.65
2022-12-26T20:57:23.921Z,0.65
2022-12-26T21:00:25.229Z,0.93
2022-12-26T21:03:27.047Z,0.70
2022-12-26T21:06:32.635Z,0.52
2022-12-26T21:09:33.890Z,0.73
2022-12-26T21:12:35.165Z,0.63
2022-12-26T21:15:36.913Z,0.90
2022-12-26T21:18:38.651Z,0.60
2022-12-26T21:21:40.659Z,0.95
2022-12-26T21:24:41.977Z,0.70
2022-12-26T21:27:43.355Z,0.52
2022-12-26T21:30:46.145Z,0.77
2022-12-26T21:33:47.480Z,0.68
2022-12-26T21:37:07.705Z,0.68
2022-12-26T21:40:09.222Z,0.63
2022-12-26T21:43:10.529Z,0.47
2022-12-26T21:46:13.339Z,0.47
2022-12-26T21:49:14.665Z,0.88
2022-12-26T21:52:15.971Z,0.82
2022-12-26T21:55:26.449Z,0.63
2022-12-26T21:58:29.140Z,0.82
2022-12-26T22:01:30.612Z,0.77
2022-12-26T22:04:32.006Z,0.95
2022-12-26T22:07:34.354Z,1.13
2022-12-26T22:10:55.178Z,0.93
2022-12-26T22:13:56.491Z,0.80
2022-12-26T22:16:57.938Z,0.93
2022-12-26T22:19:59.189Z,0.85
2022-12-26T22:23:00.455Z,0.68
2022-12-26T22:26:01.803Z,0.68
2022-12-26T22:29:03.144Z,0.82
2022-12-26T22:32:04.562Z,0.75
2022-12-26T22:35:06.164Z,0.73
2022-12-26T22:38:07.447Z,0.85
2022-12-26T22:41:09.946Z,0.90
2022-12-26T22:44:11.696Z,0.63
2022-12-26T22:47:12.985Z,0.70
2022-12-26T22:50:16.057Z,0.80
2022-12-26T22:53:17.506Z,0.88
2022-12-26T22:56:18.818Z,1.08
2022-12-26T22:59:49.274Z,0.65
2022-12-26T23:02:41.572Z,1.00
2022-12-26T23:05:43.400Z,0.90
2022-12-26T23:08:44.883Z,1.00
2022-12-26T23:12:06.299Z,1.05
2022-12-26T23:15:08.059Z,0.70
2022-12-26T23:18:47.077Z,0.73
2022-12-26T23:21:50.291Z,0.85
2022-12-26T23:24:51.644Z,0.95
2022-12-26T23:28:11.721Z,0.80
2022-12-26T23:31:13.077Z,0.85
2022-12-26T23:34:15.039Z,0.70
2022-12-26T23:37:16.407Z,0.75
2022-12-26T23:40:18.809Z,0.55
2022-12-26T23:43:20.139Z,0.82
2022-12-26T23:46:21.446Z,0.90
2022-12-26T23:49:22.848Z,0.93
2022-12-26T23:52:28.415Z,0.63
2022-12-26T23:55:31.672Z,0.68
2022-12-26T23:58:32.918Z,0.73
